Time;durP1;ratioP1;P1;durP2;ratioP2;P2;SDS_P1;SDS_P2;PMS_P1;PMS_P2;Temp;Humidity;BMP_temperature;BMP_pressure;BME280_temperature;BME280_humidity;BME280_pressure;Samples;Min_cycle;Max_cycle;Signal;HPM_P1;HPM_P2
2023/06/10 00:00:17;;;;;;;;;30.40;29.60;;;;;21.38;50.31;98834.03;5069319;28;8842;-72
2023/06/10 00:03:08;;;;;;;;;30.40;28.00;;;;;21.38;49.99;98834.03;5069314;28;8993;-70
2023/06/10 00:05:38;;;;;;;;;30.20;29.60;;;;;21.08;51.11;98839.06;5069667;28;8972;-71
2023/06/10 00:08:07;;;;;;;;;30.00;29.20;;;;;21.05;51.38;98832.97;5089668;28;8832;-73
2023/06/10 00:10:38;;;;;;;;;25.00;24.00;;;;;20.97;51.33;98839.88;5087430;28;8835;-71
2023/06/10 00:13:08;;;;;;;;;29.00;28.80;;;;;21.00;51.28;98826.28;5069270;28;8854;-70
2023/06/10 00:15:38;;;;;;;;;33.40;31.80;;;;;21.10;51.22;98831.78;5069262;28;8834;-71
2023/06/10 00:18:09;;;;;;;;;34.60;31.40;;;;;21.08;51.18;98826.53;5068908;28;8830;-71
2023/06/10 00:20:38;;;;;;;;;30.40;28.60;;;;;21.08;51.45;98828.38;5070052;28;8857;-72
2023/06/10 00:23:08;;;;;;;;;30.00;29.80;;;;;21.13;50.95;98824.38;5088499;28;8831;-71
2023/06/10 00:25:37;;;;;;;;;32.60;30.40;;;;;21.15;51.17;98829.63;5085954;28;8866;-70
2023/06/10 00:28:05;;;;;;;;;33.40;30.80;;;;;21.16;51.19;98829.50;5069047;28;8850;-72
2023/06/10 00:30:34;;;;;;;;;29.80;29.40;;;;;21.20;51.18;98838.97;5069025;28;8854;-72
2023/06/10 00:33:03;;;;;;;;;33.00;31.40;;;;;21.15;51.61;98835.81;5068938;28;8885;-72
2023/06/10 00:35:33;;;;;;;;;32.80;30.80;;;;;21.07;51.60;98832.88;5086567;28;8897;-71
2023/06/10 00:38:02;;;;;;;;;32.20;30.00;;;;;21.08;51.74;98828.38;5068705;28;9596;-71
2023/06/10 00:40:31;;;;;;;;;32.40;30.40;;;;;21.14;51.52;98831.41;5084335;28;8870;-71
2023/06/10 00:42:59;;;;;;;;;36.20;33.40;;;;;21.19;51.34;98828.41;5101352;28;8979;-71
2023/06/10 00:45:28;;;;;;;;;36.40;30.80;;;;;21.20;51.33;98827.41;5084171;28;8834;-72
2023/06/10 00:47:59;;;;;;;;;32.60;30.80;;;;;21.27;51.43;98828.66;5082817;28;8835;-71
2023/06/10 00:50:28;;;;;;;;;30.60;29.80;;;;;21.28;51.12;98824.19;5068007;28;8839;-70
2023/06/10 00:53:00;;;;;;;;;28.80;26.60;;;;;21.29;51.00;98825.88;5049417;28;9590;-71
2023/06/10 00:55:30;;;;;;;;;28.60;28.60;;;;;21.25;51.02;98826.09;5066134;28;8994;-72
2023/06/10 00:57:58;;;;;;;;;32.00;30.00;;;;;21.25;50.83;98825.25;5065707;28;8852;-69
2023/06/10 01:00:27;;;;;;;;;35.80;32.20;;;;;21.20;50.86;98830.09;5071808;28;8862;-71
2023/06/10 01:02:56;;;;;;;;;28.60;27.60;;;;;21.09;51.17;98830.06;5049074;28;9730;-70
2023/06/10 01:05:28;;;;;;;;;27.00;26.20;;;;;21.10;51.66;98831.78;5084752;28;8818;-70
2023/06/10 01:08:05;;;;;;;;;35.60;30.80;;;;;21.16;51.55;98826.81;5068760;28;8957;-70
2023/06/10 01:10:39;;;;;;;;;37.80;33.00;;;;;21.12;51.71;98828.00;5086055;28;8834;-70
2023/06/10 01:13:11;;;;;;;;;29.60;29.00;;;;;21.12;51.37;98820.00;5085810;28;8866;-72
2023/06/10 01:15:40;;;;;;;;;29.80;28.60;;;;;21.09;51.63;98822.03;5068360;28;8857;-71
2023/06/10 01:18:14;;;;;;;;;32.60;30.20;;;;;21.00;52.01;98821.78;5085839;28;9623;-70
2023/06/10 01:20:46;;;;;;;;;29.00;29.00;;;;;20.97;51.95;98816.66;5063512;28;8857;-72
2023/06/10 01:23:16;;;;;;;;;33.80;30.40;;;;;20.91;52.29;98821.59;5067914;28;8999;-71
2023/06/10 01:25:50;;;;;;;;;32.60;31.00;;;;;20.79;52.42;98818.88;5069363;28;8950;-70
2023/06/10 01:28:28;;;;;;;;;36.20;31.60;;;;;20.79;52.35;98812.69;5066514;28;8854;-72
2023/06/10 01:31:07;;;;;;;;;30.00;29.40;;;;;20.82;52.36;98813.31;5033472;28;8854;-69
2023/06/10 01:33:42;;;;;;;;;31.00;29.80;;;;;20.80;52.76;98809.03;5065089;28;8842;-69
2023/06/10 01:36:12;;;;;;;;;31.00;28.40;;;;;20.82;52.59;98812.44;5068820;28;8893;-70
2023/06/10 01:38:45;;;;;;;;;30.60;29.40;;;;;20.90;52.58;98810.06;5100074;28;8861;-70
2023/06/10 01:41:17;;;;;;;;;32.40;30.60;;;;;20.88;52.36;98822.69;5099632;28;8858;-70
2023/06/10 01:43:46;;;;;;;;;34.00;32.40;;;;;20.78;52.53;98811.81;5048296;28;8989;-72
2023/06/10 01:46:19;;;;;;;;;31.60;28.80;;;;;20.70;52.94;98811.56;5066166;28;9663;-71
2023/06/10 01:48:48;;;;;;;;;34.00;30.80;;;;;20.43;53.65;98807.31;5067694;28;8935;-70
2023/06/10 01:51:17;;;;;;;;;32.60;30.80;;;;;20.44;53.37;98803.69;5018452;28;8908;-71
2023/06/10 01:53:48;;;;;;;;;32.80;31.60;;;;;20.55;53.09;98804.69;5065960;28;8838;-70
2023/06/10 01:56:19;;;;;;;;;29.00;27.80;;;;;20.51;53.17;98803.22;5065124;28;8993;-71
2023/06/10 01:58:47;;;;;;;;;33.20;30.80;;;;;20.41;53.64;98800.41;5066234;28;9643;-71
2023/06/10 02:01:16;;;;;;;;;31.80;30.40;;;;;20.49;53.46;98801.50;5099716;28;8830;-71
2023/06/10 02:03:45;;;;;;;;;36.40;33.40;;;;;20.54;53.44;98809.19;5099326;28;8846;-71
2023/06/10 02:06:14;;;;;;;;;31.60;29.00;;;;;20.53;53.30;98812.81;5068454;28;8834;-71
2023/06/10 02:08:43;;;;;;;;;34.60;32.20;;;;;20.50;53.38;98807.72;5084833;28;8883;-72
2023/06/10 02:11:13;;;;;;;;;35.60;33.40;;;;;20.55;53.31;98800.19;5085095;28;8830;-74
2023/06/10 02:13:42;;;;;;;;;30.40;27.20;;;;;20.59;53.27;98804.34;5051856;28;8841;-72
2023/06/10 02:16:12;;;;;;;;;38.00;33.20;;;;;20.54;53.38;98800.31;5035364;28;8853;-73
2023/06/10 02:18:44;;;;;;;;;33.20;31.80;;;;;20.39;53.98;98805.00;5035367;28;8884;-71
2023/06/10 02:21:13;;;;;;;;;36.80;33.20;;;;;20.26;54.38;98805.03;5073704;28;8836;-71
2023/06/10 02:23:41;;;;;;;;;35.80;33.80;;;;;20.36;53.90;98803.38;5104791;28;8840;-71
2023/06/10 02:26:10;;;;;;;;;38.80;33.00;;;;;20.04;55.09;98798.53;5087922;28;8855;-71
2023/06/10 02:28:43;;;;;;;;;36.00;33.60;;;;;20.11;55.12;98798.97;5105406;28;8840;-71
2023/06/10 02:31:12;;;;;;;;;34.60;32.60;;;;;19.75;56.37;98810.47;5104744;28;8944;-71
2023/06/10 02:33:41;;;;;;;;;37.20;33.00;;;;;19.85;55.94;98816.84;5104736;28;8878;-73
2023/06/10 02:36:13;;;;;;;;;35.00;32.60;;;;;19.92;55.96;98822.59;5099762;28;8831;-72
2023/06/10 02:38:42;;;;;;;;;35.40;33.00;;;;;20.01;55.61;98822.78;5088065;28;8835;-71
2023/06/10 02:41:11;;;;;;;;;36.60;33.20;;;;;20.13;55.46;98823.72;5102494;28;8844;-71
2023/06/10 02:43:43;;;;;;;;;35.00;32.40;;;;;20.21;54.84;98821.34;5102708;28;8890;-71
2023/06/10 02:46:13;;;;;;;;;34.80;32.80;;;;;20.28;54.97;98819.97;5105133;28;8835;-71
2023/06/10 02:48:43;;;;;;;;;35.20;30.60;;;;;20.35;54.50;98819.50;5105597;28;8929;-72
2023/06/10 02:51:15;;;;;;;;;32.80;31.60;;;;;20.38;54.51;98813.97;5105865;27;9695;-72
2023/06/10 02:53:48;;;;;;;;;42.00;33.80;;;;;20.41;54.18;98824.41;5103331;28;8881;-72
2023/06/10 02:56:18;;;;;;;;;42.40;34.60;;;;;20.42;54.00;98821.59;5069157;28;8862;-71
2023/06/10 02:58:48;;;;;;;;;32.60;31.40;;;;;20.47;54.16;98829.28;5052630;28;8889;-70
2023/06/10 03:01:18;;;;;;;;;31.80;30.80;;;;;20.49;54.18;98828.22;5070850;28;8827;-70
2023/06/10 03:03:56;;;;;;;;;37.20;32.80;;;;;20.56;53.90;98833.09;5069330;28;8988;-70
2023/06/10 03:06:26;;;;;;;;;33.60;31.20;;;;;20.58;53.72;98836.53;5088606;28;8847;-71
2023/06/10 03:09:04;;;;;;;;;35.00;32.20;;;;;20.62;53.64;98832.66;5089805;28;8848;-73
2023/06/10 03:11:33;;;;;;;;;36.40;33.20;;;;;20.62;53.63;98844.19;5091118;28;8843;-72
2023/06/10 03:14:03;;;;;;;;;46.25;39.25;;;;;20.65;53.82;98841.28;5089800;28;9094;-71
2023/06/10 03:16:33;;;;;;;;;48.75;41.25;;;;;20.68;53.68;98846.38;5089356;28;8850;-72
2023/06/10 03:19:02;;;;;;;;;59.00;46.50;;;;;20.73;53.55;98846.06;5089140;28;8848;-70
2023/06/10 03:21:33;;;;;;;;;37.25;34.50;;;;;20.77;53.69;98850.19;5100924;28;8932;-70
2023/06/10 03:24:01;;;;;;;;;31.40;29.60;;;;;20.70;53.55;98851.63;5072392;28;8851;-71
2023/06/10 03:26:31;;;;;;;;;40.20;35.20;;;;;20.78;53.19;98854.56;5088916;28;8862;-71
2023/06/10 03:29:00;;;;;;;;;32.20;31.00;;;;;20.82;53.27;98853.41;5071222;28;8889;-71
2023/06/10 03:31:31;;;;;;;;;36.80;33.40;;;;;20.80;53.16;98854.44;5071925;28;8835;-70
2023/06/10 03:33:59;;;;;;;;;36.00;32.60;;;;;20.86;53.56;98854.03;5122722;27;8851;-70
2023/06/10 03:36:30;;;;;;;;;34.20;31.00;;;;;20.94;53.11;98850.81;5069965;28;9054;-71
2023/06/10 03:38:59;;;;;;;;;36.80;34.00;;;;;21.00;53.05;98850.34;5089005;28;8831;-70
2023/06/10 03:41:28;;;;;;;;;36.60;33.60;;;;;21.04;53.20;98855.31;5105528;28;8836;-70
2023/06/10 03:43:57;;;;;;;;;64.25;51.50;;;;;21.16;52.72;98847.34;5071757;28;8970;-72
2023/06/10 03:46:26;;;;;;;;;50.25;42.00;;;;;21.18;52.69;98851.63;5089668;28;8855;-72
2023/06/10 03:48:57;;;;;;;;;41.00;37.00;;;;;21.27;52.45;98858.06;5101633;28;8851;-72
2023/06/10 03:51:26;;;;;;;;;42.25;36.75;;;;;20.10;55.60;98880.84;5085177;28;8843;-71
2023/06/10 03:53:55;;;;;;;;;49.00;41.00;;;;;18.83;60.81;98897.50;5105504;28;8948;-70
2023/06/10 03:56:25;;;;;;;;;39.75;35.00;;;;;18.25;63.73;98910.03;5088129;28;8840;-74
2023/06/10 03:58:54;;;;;;;;;44.00;38.00;;;;;18.61;62.51;98882.03;5105368;28;8847;-70
2023/06/10 04:01:24;;;;;;;;;44.00;36.75;;;;;19.01;61.06;98898.94;5071233;28;8855;-73
2023/06/10 04:03:54;;;;;;;;;47.00;39.75;;;;;18.66;63.08;98896.75;5105357;28;8860;-71
2023/06/10 04:06:25;;;;;;;;;48.25;40.50;;;;;18.84;62.76;98894.75;5103582;28;8852;-72
2023/06/10 04:08:55;;;;;;;;;46.50;39.00;;;;;18.90;62.52;98902.31;5088007;28;8887;-72
2023/06/10 04:11:25;;;;;;;;;43.75;38.50;;;;;19.38;60.89;98891.13;5089314;28;8854;-71
2023/06/10 04:13:53;;;;;;;;;54.75;45.00;;;;;19.74;59.97;98891.41;5088515;28;8836;-70
2023/06/10 04:16:23;;;;;;;;;49.00;41.50;;;;;20.05;58.65;98884.78;5087645;28;8879;-70
2023/06/10 04:18:52;;;;;;;;;53.75;44.50;;;;;20.28;58.15;98888.50;5087893;28;8925;-72
2023/06/10 04:21:21;;;;;;;;;44.75;37.75;;;;;20.43;57.32;98886.56;5080206;28;8862;-71
2023/06/10 04:23:52;;;;;;;;;44.00;38.50;;;;;20.65;56.64;98885.81;5067247;28;8881;-70
2023/06/10 04:26:21;;;;;;;;;43.60;36.80;;;;;20.88;55.72;98884.13;5067348;28;8842;-71
2023/06/10 04:28:52;;;;;;;;;36.80;33.60;;;;;21.01;55.22;98881.41;5050151;28;8931;-70
2023/06/10 04:31:22;;;;;;;;;40.50;34.25;;;;;21.10;54.82;98888.75;5067448;28;8858;-71
2023/06/10 04:33:50;;;;;;;;;34.40;32.40;;;;;21.26;54.82;98885.78;5068804;28;8866;-71
2023/06/10 04:36:19;;;;;;;;;35.00;30.40;;;;;21.13;54.09;98890.34;5070131;28;10105;-70
2023/06/10 04:38:48;;;;;;;;;38.20;33.60;;;;;20.75;55.04;98888.69;5101041;28;8855;-72
2023/06/10 04:41:19;;;;;;;;;37.00;33.80;;;;;20.13;57.48;98895.75;5084757;28;8838;-71
2023/06/10 04:43:48;;;;;;;;;39.00;34.60;;;;;19.80;58.55;98889.19;5101336;28;8857;-71
2023/06/10 04:46:17;;;;;;;;;40.00;35.80;;;;;19.75;59.04;98891.31;5067728;28;8973;-71
2023/06/10 04:48:46;;;;;;;;;35.20;32.60;;;;;20.24;57.33;98890.53;5084477;28;9655;-71
2023/06/10 04:51:16;;;;;;;;;34.60;31.00;;;;;20.53;56.63;98886.72;5073447;28;8851;-71
2023/06/10 04:53:45;;;;;;;;;37.80;33.20;;;;;20.81;55.61;98882.88;5089099;28;8893;-73
2023/06/10 04:56:15;;;;;;;;;33.80;32.40;;;;;21.03;55.19;98893.72;5089031;28;8840;-71
2023/06/10 04:58:45;;;;;;;;;33.60;31.20;;;;;21.28;54.63;98891.00;5052708;28;8936;-71
2023/06/10 05:01:14;;;;;;;;;28.00;27.60;;;;;21.45;53.83;98891.41;5079888;28;8931;-71
2023/06/10 05:03:42;;;;;;;;;38.00;34.60;;;;;21.43;53.92;98892.50;5067748;28;8943;-70
2023/06/10 05:06:11;;;;;;;;;32.80;30.40;;;;;21.68;52.82;98888.81;5084379;28;8826;-70
2023/06/10 05:08:40;;;;;;;;;26.80;26.20;;;;;21.63;52.09;98885.63;5085050;28;8979;-71
2023/06/10 05:11:09;;;;;;;;;22.40;22.40;;;;;21.65;51.06;98889.03;5085707;28;8915;-72
2023/06/10 05:13:39;;;;;;;;;26.20;23.00;;;;;21.74;50.48;98884.81;5065131;28;8848;-70
2023/06/10 05:16:10;;;;;;;;;24.20;23.00;;;;;21.86;50.15;98883.84;5065172;28;8859;-73
2023/06/10 05:18:39;;;;;;;;;24.00;23.40;;;;;22.05;49.78;98880.56;5065494;28;8863;-70
2023/06/10 05:21:08;;;;;;;;;22.00;22.00;;;;;22.12;49.47;98879.09;5065850;28;9541;-71
2023/06/10 05:23:36;;;;;;;;;18.00;17.80;;;;;22.28;49.41;98884.13;5015358;28;8840;-71
2023/06/10 05:26:06;;;;;;;;;25.80;24.80;;;;;22.47;49.12;98882.59;4998688;28;8860;-72
2023/06/10 05:28:34;;;;;;;;;23.60;22.40;;;;;22.62;48.72;98881.38;5064334;28;8883;-71
2023/06/10 05:31:04;;;;;;;;;21.20;21.20;;;;;22.71;47.75;98885.13;5046456;28;8870;-72
2023/06/10 05:33:34;;;;;;;;;21.00;19.60;;;;;22.85;47.94;98884.00;5044686;28;8955;-71
2023/06/10 05:36:03;;;;;;;;;22.40;21.80;;;;;22.85;47.28;98892.88;5053868;28;8851;-71
2023/06/10 05:38:32;;;;;;;;;22.80;19.40;;;;;22.97;47.04;98891.88;5089270;28;8832;-71
2023/06/10 05:41:01;;;;;;;;;18.20;16.60;;;;;23.07;46.10;98891.13;5088495;28;8834;-72
2023/06/10 05:43:29;;;;;;;;;21.60;21.20;;;;;23.22;45.87;98891.66;5092344;28;8851;-72
2023/06/10 05:45:58;;;;;;;;;22.60;21.40;;;;;23.30;45.40;98897.22;5030823;28;8855;-74
2023/06/10 05:48:27;;;;;;;;;21.40;21.20;;;;;23.32;45.13;98897.97;5099752;28;8994;-71
2023/06/10 05:50:57;;;;;;;;;16.60;16.40;;;;;23.43;44.98;98897.91;5078315;28;8841;-71
2023/06/10 05:53:26;;;;;;;;;22.80;19.60;;;;;23.55;44.59;98901.41;5082587;28;8841;-71
2023/06/10 05:55:57;;;;;;;;;21.00;20.80;;;;;23.56;44.83;98908.44;5087328;28;8861;-72
2023/06/10 05:58:25;;;;;;;;;20.20;19.80;;;;;23.68;44.71;98901.19;5082612;28;8968;-71
2023/06/10 06:00:54;;;;;;;;;18.60;18.60;;;;;23.81;44.00;98909.03;5067060;28;8846;-71
2023/06/10 06:03:23;;;;;;;;;17.60;17.60;;;;;23.94;43.84;98906.97;5084559;28;8962;-70
2023/06/10 06:05:53;;;;;;;;;17.20;17.20;;;;;24.14;43.30;98908.78;5083258;28;8865;-71
2023/06/10 06:08:23;;;;;;;;;16.40;15.40;;;;;24.22;43.39;98905.44;5084406;28;8954;-69
2023/06/10 06:10:52;;;;;;;;;16.20;16.20;;;;;24.35;42.93;98914.09;5083537;28;8846;-73
2023/06/10 06:13:20;;;;;;;;;17.80;15.60;;;;;24.50;41.96;98902.97;5083988;28;8853;-71
2023/06/10 06:15:49;;;;;;;;;16.40;16.20;;;;;24.46;42.46;98902.41;5083983;28;8849;-70
2023/06/10 06:18:19;;;;;;;;;16.80;16.80;;;;;24.57;42.04;98901.44;5084012;28;8866;-70
2023/06/10 06:20:48;;;;;;;;;14.80;14.80;;;;;24.63;41.74;98903.59;5084650;28;8850;-70
2023/06/10 06:23:17;;;;;;;;;16.20;14.80;;;;;24.69;41.28;98896.81;5070748;28;9000;-72
2023/06/10 06:25:47;;;;;;;;;15.20;15.20;;;;;24.67;40.74;98898.78;5087317;28;8846;-73
2023/06/10 06:28:16;;;;;;;;;10.40;10.40;;;;;24.67;40.74;98890.72;5071372;28;8858;-73
2023/06/10 06:30:45;;;;;;;;;15.20;14.80;;;;;24.75;40.62;98890.91;5071224;28;8853;-72
2023/06/10 06:33:14;;;;;;;;;15.40;14.80;;;;;24.68;40.95;98889.72;5087869;28;8974;-73
2023/06/10 06:35:43;;;;;;;;;14.40;13.60;;;;;24.71;41.37;98892.13;5055897;28;8840;-72
2023/06/10 06:38:12;;;;;;;;;14.60;14.60;;;;;24.86;40.90;98898.00;5034252;28;8853;-73
2023/06/10 06:40:41;;;;;;;;;15.60;13.80;;;;;24.91;40.16;98896.59;5062952;28;8905;-71
2023/06/10 06:43:11;;;;;;;;;14.00;14.00;;;;;25.06;39.83;98902.41;5050030;28;8857;-75
2023/06/10 06:45:50;;;;;;;;;13.80;13.80;;;;;25.12;39.40;98903.66;5050641;28;8958;-74
2023/06/10 06:48:19;;;;;;;;;15.20;14.00;;;;;25.23;39.20;98905.38;5034591;28;8890;-74
2023/06/10 06:50:49;;;;;;;;;11.60;11.60;;;;;25.42;38.30;98901.84;5059941;28;8822;-73
2023/06/10 06:53:18;;;;;;;;;12.80;12.80;;;;;25.43;38.53;98901.69;5067131;28;9635;-73
2023/06/10 06:55:46;;;;;;;;;13.40;12.40;;;;;25.37;38.49;98901.44;5048430;28;8896;-72
2023/06/10 06:58:16;;;;;;;;;11.80;11.80;;;;;25.49;37.72;98903.81;5048402;28;8993;-73
2023/06/10 07:00:45;;;;;;;;;13.00;13.00;;;;;25.50;37.73;98902.81;5061646;28;8870;-75
2023/06/10 07:03:15;;;;;;;;;9.20;9.20;;;;;25.43;37.30;98901.69;5014992;28;8861;-72
2023/06/10 07:05:44;;;;;;;;;13.60;12.00;;;;;25.49;37.52;98895.75;5065027;28;8885;-71
2023/06/10 07:08:13;;;;;;;;;12.40;12.00;;;;;25.55;37.40;98891.63;5072610;28;8854;-69
2023/06/10 07:10:43;;;;;;;;;16.40;15.40;;;;;25.59;37.53;98895.72;5048397;28;8876;-70
2023/06/10 07:13:12;;;;;;;;;13.40;12.00;;;;;25.62;37.82;98891.88;5049231;28;8856;-69
2023/06/10 07:15:44;;;;;;;;;15.00;13.60;;;;;25.63;37.79;98902.50;5055935;28;8878;-71
2023/06/10 07:18:13;;;;;;;;;13.60;13.60;;;;;25.57;37.95;98899.53;5032809;28;8878;-70
2023/06/10 07:20:42;;;;;;;;;10.80;10.40;;;;;25.34;38.14;98907.09;5054738;28;8883;-69
2023/06/10 07:23:11;;;;;;;;;14.40;14.00;;;;;25.20;38.34;98906.50;5068165;28;8857;-70
2023/06/10 07:25:40;;;;;;;;;13.00;13.00;;;;;25.20;39.32;98911.88;5041249;28;8860;-70
2023/06/10 07:28:09;;;;;;;;;15.40;15.00;;;;;25.00;39.93;98913.72;5069190;28;8862;-73
2023/06/10 07:30:37;;;;;;;;;14.00;13.20;;;;;24.91;40.67;98910.03;5068768;28;8862;-69
2023/06/10 07:33:08;;;;;;;;;14.60;14.60;;;;;24.92;40.60;98918.94;5069604;28;8951;-70
2023/06/10 07:35:37;;;;;;;;;12.60;12.60;;;;;24.78;40.95;98917.50;5063831;28;8936;-69
2023/06/10 07:38:05;;;;;;;;;13.20;13.20;;;;;24.65;42.84;98903.44;5076079;28;8857;-71
2023/06/10 07:40:34;;;;;;;;;16.00;15.00;;;;;24.38;43.20;98904.06;5101581;28;8915;-70
2023/06/10 07:43:03;;;;;;;;;16.00;15.40;;;;;24.31;44.23;98912.69;5069333;28;8858;-69
2023/06/10 07:45:32;;;;;;;;;17.20;17.00;;;;;24.32;44.83;98916.19;5068470;28;8839;-69
2023/06/10 07:48:01;;;;;;;;;15.40;14.60;;;;;24.24;44.02;98913.34;5069337;28;8862;-70
2023/06/10 07:50:31;;;;;;;;;12.40;12.40;;;;;24.13;43.98;98920.53;5078548;28;8882;-69
2023/06/10 07:53:00;;;;;;;;;15.00;14.40;;;;;24.02;43.88;98915.22;5074069;28;8864;-69
2023/06/10 07:55:29;;;;;;;;;12.80;12.80;;;;;23.81;45.14;98917.06;5069423;28;8850;-72
2023/06/10 07:57:57;;;;;;;;;11.00;11.00;;;;;23.67;45.22;98921.78;5033441;28;8835;-69
2023/06/10 08:00:26;;;;;;;;;9.40;8.60;;;;;23.63;45.65;98909.63;5067246;28;8838;-69
2023/06/10 08:02:55;;;;;;;;;11.20;10.60;;;;;23.59;45.51;98918.94;5068779;28;8858;-68
2023/06/10 08:05:26;;;;;;;;;13.80;12.80;;;;;23.62;45.44;98917.81;5027470;28;8840;-68
2023/06/10 08:07:57;;;;;;;;;13.00;13.00;;;;;23.63;45.90;98916.84;5045838;28;8848;-69
2023/06/10 08:10:28;;;;;;;;;11.20;11.20;;;;;23.64;46.17;98911.34;5046053;28;8915;-68
2023/06/10 08:12:57;;;;;;;;;16.80;15.40;;;;;23.52;46.16;98918.59;5046043;28;8878;-69
2023/06/10 08:15:26;;;;;;;;;14.60;14.00;;;;;23.50;46.21;98911.63;5012913;28;8836;-69
2023/06/10 08:17:56;;;;;;;;;15.00;15.00;;;;;23.55;46.36;98910.28;5046167;28;8851;-70
2023/06/10 08:20:25;;;;;;;;;14.40;14.00;;;;;23.56;45.49;98906.63;5041845;28;8987;-72
2023/06/10 08:22:57;;;;;;;;;14.40;14.00;;;;;23.68;45.17;98906.56;5045289;28;9723;-71
2023/06/10 08:25:26;;;;;;;;;9.80;9.80;;;;;23.63;43.10;98908.78;5045384;28;8855;-71
2023/06/10 08:27:56;;;;;;;;;13.80;13.80;;;;;23.72;44.32;98902.63;5023894;28;8975;-77
2023/06/10 08:30:25;;;;;;;;;16.60;14.80;;;;;23.78;43.94;98905.63;5010610;28;8980;-75
2023/06/10 08:32:55;;;;;;;;;14.00;13.60;;;;;23.83;44.06;98904.38;5012931;28;8854;-75
2023/06/10 08:35:24;;;;;;;;;14.60;13.60;;;;;23.84;43.48;98898.88;5010580;28;8940;-67
2023/06/10 08:37:53;;;;;;;;;15.00;15.00;;;;;24.04;43.51;98907.88;5045253;28;8966;-70
2023/06/10 08:40:24;;;;;;;;;14.40;14.40;;;;;24.16;43.49;98901.44;5018023;28;8929;-73
2023/06/10 08:43:01;;;;;;;;;14.20;13.80;;;;;24.28;43.71;98899.53;5024806;28;8904;-73
2023/06/10 08:45:35;;;;;;;;;12.80;12.80;;;;;24.21;42.19;98902.91;5068332;28;8959;-73
2023/06/10 08:48:06;;;;;;;;;11.60;11.60;;;;;24.39;41.60;98903.94;5067627;28;8874;-74
2023/06/10 08:50:38;;;;;;;;;14.80;14.80;;;;;24.43;40.91;98899.16;5072786;28;8867;-72
2023/06/10 08:53:08;;;;;;;;;15.20;13.40;;;;;24.27;41.50;98899.66;5088446;28;8843;-70
2023/06/10 08:55:41;;;;;;;;;16.20;14.80;;;;;24.34;40.97;98888.25;5075872;28;8859;-71
2023/06/10 08:58:11;;;;;;;;;17.40;17.20;;;;;24.47;42.30;98882.63;5068489;28;8846;-71
2023/06/10 09:00:40;;;;;;;;;14.80;13.40;;;;;24.48;40.58;98880.78;5087858;28;8856;-72
2023/06/10 09:03:10;;;;;;;;;13.60;11.80;;;;;24.54;40.93;98880.22;5087752;28;9025;-71
2023/06/10 09:05:39;;;;;;;;;13.60;13.60;;;;;24.35;40.13;98872.97;5085287;28;8835;-70
2023/06/10 09:08:09;;;;;;;;;11.20;10.80;;;;;24.54;40.43;98869.47;5075665;28;8864;-71
2023/06/10 09:10:39;;;;;;;;;18.00;16.00;;;;;24.76;40.53;98865.72;5074051;28;8890;-71
2023/06/10 09:13:08;;;;;;;;;16.00;15.00;;;;;24.82;39.97;98858.94;5046945;28;8840;-70
2023/06/10 09:15:40;;;;;;;;;14.00;14.00;;;;;24.85;39.46;98864.03;5070880;28;8876;-72
2023/06/10 09:18:09;;;;;;;;;15.60;14.80;;;;;24.92;39.50;98851.72;5064529;28;8855;-70
2023/06/10 09:20:39;;;;;;;;;15.00;14.60;;;;;24.98;40.05;98848.47;5023641;28;8957;-73
2023/06/10 09:23:08;;;;;;;;;15.20;15.20;;;;;25.07;39.73;98849.44;5024640;28;8876;-75
2023/06/10 09:25:40;;;;;;;;;15.60;14.60;;;;;25.20;39.94;98850.00;5026096;28;8838;-72
2023/06/10 09:28:15;;;;;;;;;14.60;13.60;;;;;25.34;39.05;98847.91;5023700;28;8927;-73
2023/06/10 09:30:44;;;;;;;;;10.60;10.60;;;;;25.31;38.41;98841.78;5007771;28;8879;-74
2023/06/10 09:33:16;;;;;;;;;16.20;15.20;;;;;25.18;38.16;98849.31;5020670;28;8884;-72
2023/06/10 09:35:49;;;;;;;;;13.60;13.00;;;;;25.50;38.36;98840.91;5025004;28;8869;-72
2023/06/10 09:38:22;;;;;;;;;13.80;11.80;;;;;25.58;37.53;98842.88;5025282;28;8838;-72
2023/06/10 09:40:53;;;;;;;;;12.80;12.80;;;;;25.70;37.50;98838.19;5008455;28;9790;-70
2023/06/10 09:43:23;;;;;;;;;12.00;11.40;;;;;25.70;36.69;98838.19;5041290;28;8822;-70
2023/06/10 09:45:53;;;;;;;;;10.60;10.60;;;;;25.82;36.39;98834.31;5064474;28;8836;-71
2023/06/10 09:48:23;;;;;;;;;14.00;13.20;;;;;25.28;36.36;98830.47;5037318;28;8847;-77
2023/06/10 09:50:52;;;;;;;;;12.60;12.60;;;;;25.41;37.36;98830.19;5059684;28;8879;-77
2023/06/10 09:53:22;;;;;;;;;12.80;11.80;;;;;25.66;37.36;98831.38;5018197;28;8940;-79
2023/06/10 09:55:53;;;;;;;;;13.40;12.60;;;;;25.76;35.87;98836.75;5075144;28;8947;-78
2023/06/10 09:58:36;;;;;;;;;12.80;12.80;;;;;26.07;34.90;98829.25;5066454;28;8930;-77
2023/06/10 10:01:10;;;;;;;;;13.60;12.00;;;;;26.12;35.10;98828.84;5030980;28;8855;-76
2023/06/10 10:03:45;;;;;;;;;13.80;12.80;;;;;26.21;35.22;98827.91;5066443;28;8889;-78
2023/06/10 10:06:15;;;;;;;;;13.40;13.40;;;;;26.17;36.40;98830.06;5068286;28;8857;-73
2023/06/10 10:08:44;;;;;;;;;15.00;14.80;;;;;25.37;36.61;98824.25;5065233;28;8859;-73
2023/06/10 10:11:17;;;;;;;;;13.80;13.80;;;;;25.42;36.51;98813.06;5066270;28;9048;-75
2023/06/10 10:13:48;;;;;;;;;12.40;11.40;;;;;23.92;38.65;98823.91;5066570;28;8931;-75
2023/06/10 10:16:20;;;;;;;;;15.20;14.60;;;;;24.55;38.29;98812.06;5066331;28;8862;-73
2023/06/10 10:18:55;;;;;;;;;13.20;12.40;;;;;25.09;37.86;98807.13;5065802;28;8989;-73
2023/06/10 10:21:27;;;;;;;;;12.60;12.60;;;;;25.23;37.42;98806.69;5069699;28;8862;-74
2023/06/10 10:24:04;;;;;;;;;12.40;12.40;;;;;24.87;37.98;98813.69;5080320;28;9027;-71
2023/06/10 10:26:35;;;;;;;;;14.00;13.20;;;;;23.47;39.77;98808.13;5065903;28;8858;-72
2023/06/10 10:29:11;;;;;;;;;15.40;15.40;;;;;22.89;41.37;98816.63;5066070;28;8850;-73
2023/06/10 10:31:43;;;;;;;;;15.40;14.20;;;;;22.97;41.48;98819.50;5064645;28;8874;-72
2023/06/10 10:34:16;;;;;;;;;12.60;12.20;;;;;23.79;40.60;98815.25;5082012;28;8834;-73
2023/06/10 10:36:47;;;;;;;;;19.60;19.60;;;;;23.47;40.49;98808.13;5076337;28;8886;-73
2023/06/10 10:39:17;;;;;;;;;11.20;10.80;;;;;24.26;39.28;98798.59;5083512;28;8826;-73
2023/06/10 10:41:50;;;;;;;;;14.40;13.80;;;;;24.79;39.29;98802.78;5083929;28;8825;-73
2023/06/10 10:44:20;;;;;;;;;11.20;11.20;;;;;25.14;38.57;98794.13;5083569;28;8842;-74
2023/06/10 10:46:51;;;;;;;;;14.60;13.60;;;;;25.15;37.82;98801.16;5083535;28;8884;-71
2023/06/10 10:49:23;;;;;;;;;16.00;14.00;;;;;24.06;38.87;98795.00;5082877;28;9083;-71
2023/06/10 10:51:59;;;;;;;;;15.40;14.40;;;;;24.16;38.77;98791.34;5081464;28;8877;-73
2023/06/10 10:54:33;;;;;;;;;12.40;12.40;;;;;24.96;38.39;98783.22;5083190;28;9031;-72
2023/06/10 10:57:16;;;;;;;;;14.00;14.00;;;;;25.04;38.38;98777.13;5083177;28;8976;-70
2023/06/10 10:59:59;;;;;;;;;13.00;12.80;;;;;25.69;37.44;98780.78;5070745;28;8846;-72
2023/06/10 11:02:42;;;;;;;;;12.80;12.80;;;;;25.77;36.04;98781.91;5082976;28;8862;-73
2023/06/10 11:05:14;;;;;;;;;13.60;13.60;;;;;25.43;36.98;98777.91;5081706;28;9712;-73
2023/06/10 11:07:54;;;;;;;;;17.60;16.40;;;;;26.01;36.46;98779.53;5035153;28;8858;-73
2023/06/10 11:10:31;;;;;;;;;13.60;13.60;;;;;26.50;35.87;98779.25;5042562;28;8998;-71
2023/06/10 11:13:07;;;;;;;;;14.00;13.20;;;;;26.77;34.93;98778.31;5067704;28;8838;-72
2023/06/10 11:15:40;;;;;;;;;13.60;12.20;;;;;26.40;35.37;98775.75;5068962;28;8865;-71
2023/06/10 11:18:21;;;;;;;;;12.60;12.20;;;;;27.01;34.90;98776.84;5069240;28;8854;-71
2023/06/10 11:20:59;;;;;;;;;11.00;11.00;;;;;27.29;33.84;98772.19;5071341;28;8846;-71
2023/06/10 11:23:45;;;;;;;;;12.80;12.80;;;;;27.01;33.70;98771.44;5088980;28;8852;-74
2023/06/10 11:26:32;;;;;;;;;9.40;9.40;;;;;27.53;32.75;98770.63;5072771;28;9596;-73
2023/06/10 11:29:10;;;;;;;;;9.00;9.00;;;;;28.07;32.17;98762.28;5070927;28;9072;-74
2023/06/10 11:31:47;;;;;;;;;11.20;11.00;;;;;28.41;31.12;98760.34;5079722;28;8858;-70
2023/06/10 11:34:23;;;;;;;;;12.00;11.40;;;;;28.75;31.60;98759.38;5084202;28;8859;-73
2023/06/10 11:36:52;;;;;;;;;12.80;11.60;;;;;28.05;30.92;98758.91;5066203;28;8845;-72
2023/06/10 11:39:24;;;;;;;;;9.80;9.80;;;;;28.18;31.03;98757.44;5065926;28;8909;-72
2023/06/10 11:41:53;;;;;;;;;9.40;9.40;;;;;28.59;30.55;98748.53;5066219;28;8890;-74